Buckland, AK

9:49 AM AKDT on July 24, 2014 (GMT -0800)
Buckland (PABL) Elev 30 ft | 65.98 °N, 161.15 °W | Change Station

Current weather conditions updated 13 minutes ago

Overcast
Overcast
46 °F
Feels Like 38 °F
N
23
Wind Variable Wind from WNW

Today is forecast to be Cooler than yesterday.

Today
High -- | Low -- °F
--% Chance of Precip.
Yesterday
High -- | Low -- °F
Precip. -- in
4:59 AM 0:39 AM
Waning Crescent, 4% visible
Pressure 29.84 in
Visibility 10.0 miles
Clouds Overcast 1800 ft
Windchill 38 °F
Dew Point 39 °F
Humidity 76%
Rainfall 0.00 in
Snow Depth Not available.
UV 1 out of 12
Pollen Not available.
Air Quality Not available.
Flu Activity Not available.
METAR PABL 241736Z AUTO 30020KT 10SM OVC018 08/04 A2984 RMK AO1

More Conditions Fewer Conditions

Pressure 29.84 in
Visibility 10.0 miles
Clouds Overcast 1800 ft
Windchill 38 °F
Dew Point 39 °F
Humidity 76%
Rainfall 0.00 in
Snow Depth Not available.
UV 1 out of 12
Pollen Not available.
Air Quality Not available.
Flu Activity Not available.
METAR PABL 241736Z AUTO 30020KT 10SM OVC018 08/04 A2984 RMK AO1

More Conditions Fewer Conditions

10-Day Weather Forecast

Almanac

Astronomy

Jul. 24, 2014 Rise Set
Actual Time 4:59 AM AKDT 12:39 AM AKDT
Civil Twilight 3:23 AM AKDT 2:18 AM AKDT
Nautical Twilight Sun does not rise Sun does not rise
Astronomical Twilight Sun does not rise Sun does not rise
Moon 3:39 AM AKDT 10:34 PM AKDT
Length of Visible Light 22h 55m
Length of Day
19h 39m
Tomorrow will be 8m 4s shorter.
Waning Crescent, 4% of the Moon is Illuminated
Today
Waning Crescent
Jul 26
New
Aug 3
First Quarter
Aug 10
Full
Aug 17
Last Quarter

Today's Extremes

State Highs State Lows

Community

WunderPhotos

Upload Photos

1,737,079 photos uploaded!

Nearby

Snow Depth

Station Depth Elevation
Rocky Point 1 in 500 ft
Gobblers Knob 0 in 2030 ft
Coldfoot 1 in 1040 ft
Atigun Pass 0 in 4800 ft
Imnaviat Creek 0 in 3050 ft

Earthquake Activity

City Distance Mag. Time & Date
No recent earthquake activity has been reported nearby.
Minimum magnitude displayed is 2.5.

Coastal Water Temperatures

Place Temperature
No Stations Reporting

Nearby Weather Stations

Station Location Temp. Windchill Dew Point Humidity Wind Precip. Elev Updated Type
RAWS BUCKLAND UPLANDS AK, Buckland, AK 45 °F 38 °F 40 °F 81% West  at  16 mph 0.00 in / hr 399 ft 8:21 AM AKDT MADIS

Show More Stations Show Fewer Stations